Spring Lake Heights, New Jersey
Current Conditions -  °F | °C
As of 6:35 PM on Friday 19 Dec 2014 (Local Time) from KBLM Reporting Station
Overcast Overcast  
Wind Chill: 26°   Ceiling: 3000
Heat Index: 34°   Visibility: 10mi
Dew Point: 19°   Wind: 10mph
Humidity: 56%   Direction: 340°NNW
Pressure: 30.14"   Gusts: NA
Location:  40.1528°N, 74.0364°W
Report Text: KBLM 192335Z AUTO 34009KT 10SM OVC030 01/M07 A3014 RMK AO1
Loading
Personal Weather Stations






























Interactive Weather Map New forecast layout! Learn more

10-Day Weather Forecast

Advertisements
Track Severe Weather on mobile